Terminal Aerodrome Forecast
Issued by NWS

Home | Current Version | Previous Version | Text Only | Print | Product List | Glossary On
Versions: 1 2 3 4 5 6 7 8 9 10 11 12 13 14 15 16 17 18 19 20 21
256
FTUS41 KBGM 281548 AAA
TAFELM
TAF AMD
KELM 281548Z 2816/2912 00000KT 6SM -SHRA BR OVC015
      TEMPO 2816/2818 3SM -SHRA BR OVC009
     FM290000 35006KT P6SM OVC010
     FM290900 35007KT P6SM BKN015=

USA.gov is the U.S. government's official web portal to all federal, state and local government web resources and services.